Enter the Airport ICAO Code

Search by Airport or City

Current Weather

PANC | Ted Stevens Anchorage International Airport

Anchorage, Alaska, United States

Last Update 12 Minutes Ago

Mist

Temperature of 02 ºC Below Zero

Light Winds from SouthEast

Temperature

02 ºC Below Zero

Dew Point Temperature

03 ºC Below Zero

Relative Humidity

92.83 %

Wind Direction

SouthEast (120º, Without Significant Variations)

Wind Velocity

7 km/h (04 kt)

Gusts

None

Visibility

Reduced to 2 Miles

Sea Level Pressure

29.13 inHg (Inches of Mercury)

Layers of Clouds

5% to 30% of Sky Covered from 823 mts (2700 ft) Above Ground Level.

60% to 90% of Sky Covered from 1067 mts (3500 ft) Above Ground Level.

90% to 100% of Sky Covered from 2134 mts (7000 ft) Above Ground Level.

METAR PANC 022236Z 12004KT 2SM BR FEW027 BKN035 OVC070 M02/M03 A2913 RMK AO2 SNE29 CIG 028 N P0002 T10221033

Weather Forecast

PANC | Ted Stevens Anchorage International Airport

Anchorage, Alaska, United States

Forecast valid for the next 25 Hours

From now on it is expected:

Light Snow Fall, Fog

Light to Moderate Winds from SouthWest

In 4 hours it is expected the begining of:

Light Snow Fall

Light to Moderate Winds from South

Maximum Temperature

No Data

Minimum Temperature

No Data

TAF PANC 022014Z 0220/0324 22007KT 1/2SM -SN FZFG OVC010 FM030300 18008KT 3SM -SN BKN015